Aérodrome :
LOGIN :

S'inscrire | Disclaimer

   EN    FR    IT 

 










Légende :    VFR   VFR Marginal   IFR   IFR Intensif   IFR Très Intensif
Visi : 
Plafond : 
>= 8 km
>= 3000ft
5 à 8 km
1000 à 3000 ft
1500m à 5 km
500 à 1000 ft
800 à 1500m
200 à 500 ft
< 800m
< 200 ft
Symboles :   Orages  Brouillard  Fortes neiges  Fortes précipitations  Vent > 20 kt
SIGMETs :   Divers  Orages  Givrage  Turbulence  Onde Orograph.  Cendres Volcan.







- Altitude de l'aérodrome : 163 ft
- Code IATA : DGX


EGDX - St Athan

DERNIER METAR :
  • 211650Z AUTO 27022G32KT 9000 HZ BKN012/// SCT033/// 13/12 Q0999 RERA

METARs EXPIRÉS :
  • 211550Z 25027G40KT 4800 +SHRA BKN005 BKN014 12/12 Q0998 YLO1
  • 211450Z 25029G42KT 3500 +SHRA BKN014 BKN020 12/11 Q0998 YLO1

TAF AMD TAF EGDX
Valide du 21 à 16h jusqu'au 21 à 18h UTC


211610Z 2116/2118 25025G35KT 9999 BKN025
TEMPO 2116/2118 3000 SHRA SCT006
PROB40
Pas de NOTAMs connus pour ce terrain.
2 SIGMETs publiés pour la FIR London (EGTT) :
 
Turbulence forte
EGTT SIGMET 05 VALID 211800/212200 EGRR
EGTT LONDON FIR SEV TURB FCST SE OF LINE N5500 W00059 - N5332 W00530 SFC/FL060 STNR WKN=
Turbulence forte
EGTT SIGMET 04 VALID 211400/211800 EGRR
EGTT LONDON FIR SEV TURB FCST S OF N5400 SFC/FL060 STNR WKN=



MET'MAP, la Météo Aéronautique d'un coup d'oeil ! - Copyright ORBIFLY Décembre 2007 - Disclaimer

ORBIFLY MET'MAP TEAM :

Programmation & Développement : Alexandra Zaïnal
Conception & Développement : Baudouin d'Aumeries
Co-Programmation & Développement : Marc-Olivier Méhu
Soutien technique & logistique : Manuel Goepfert

Contact : metmap@orbifly.com




SOURCES & CREDITS :

   NOAA